Airfield :
LOGIN :

Register | Disclaimer

   EN    FR    IT 

 










Legend :    VFR   Marginal VFR   IFR   Intensive IFR   Very Intensive IFR
Visi :
Ceiling :
>= 8 km
>= 3000ft
5 to 8 km
1000 to 3000 ft
1500m to 5 km
500 to 1000 ft
800 to 1500m
200 to 500 ft
< 800m
< 200 ft
Symbols :   Thunderstorms  Fog  Heavy snow  Heavy precipitations  Wind > 20 kt
SIGMETs :     Misc.  Thunderstorms  Icing  Turbulence  Mountain Waves  Volcanic Ashes






- Airport Elevation : 622 ft
- IATA code : BRS


EGGD - Bristol Int.

CURRENT METAR :
  • 291450Z AUTO 24013KT 9999 FEW027 BKN032 09/04 Q1011

EXPIRED METARs :
  • 291420Z AUTO 24012KT 9999 SCT024 BKN041 OVC049 09/04 Q1011
  • 291350Z AUTO 24014KT 9999 FEW018 SCT023 BKN033 09/04 Q1011
  • 291320Z AUTO 25015KT 9999 BKN016 09/05 Q1011
  • 291250Z AUTO 25015KT 9999 BKN015 OVC040 08/05 Q1011

TAF TAF EGGD
Valid from the 29 at 12:00 until the 30 at 12:00 UTC


291102Z 2912/3012 27013KT 9999 SCT025
BECMG 2915/2918 21010KT
PROB30
TEMPO 2915/2920 8000 -RA BKN012
BECMG 3001/3004 3000 BR BKN004
BECMG 3004/3007 15008KT 0200 -DZ FG BKN000
ATIS : +44 1275 473 666



MET'MAP, your aeronautical weather chart ! - Copyright ORBIFLY December 2007 - Disclaimer

ORBIFLY MET'MAP TEAM :

Programming & Development : Alexandra Zaïnal
Concept & original design : Baudouin d'Aumeries
Assistance for programming : Marc-Olivier Méhu
Technical & hardware support : Manuel Goepfert

Contact : metmap@orbifly.com




SOURCES & CREDITS :

   NOAA